Time;durP1;ratioP1;P1;durP2;ratioP2;P2;SDS_P1;SDS_P2;PMS_P1;PMS_P2;Temp;Humidity;BMP_temperature;BMP_pressure;BME280_temperature;BME280_humidity;BME280_pressure;Samples;Min_cycle;Max_cycle;Signal;HPM_P1;HPM_P2
2022/11/09 05:57:14;;;;;;;;;1.75;1.75;;;;;13.32;71.86;100820.47;2993144;22;44840;-86
2022/11/09 05:58:25;;;;;;;;;2.25;2.00;;;;;13.33;71.94;100822.19;3056743;22;45297;-86
2022/11/09 05:59:35;;;;;;;;;1.00;1.00;;;;;13.32;72.17;100818.69;3043255;22;45174;-87
2022/11/09 06:00:45;;;;;;;;;4.50;2.00;;;;;13.32;71.96;100823.09;3048066;22;46410;-88
2022/11/09 06:01:56;;;;;;;;;3.50;2.00;;;;;13.33;71.96;100830.97;3043154;22;45229;-87
2022/11/09 06:03:08;;;;;;;;;3.00;2.00;;;;;13.34;72.08;100832.66;3043130;22;46808;-88
2022/11/09 06:04:19;;;;;;;;;2.50;1.00;;;;;13.34;71.85;100832.66;3032971;22;45291;-87
2022/11/09 06:05:32;;;;;;;;;2.50;2.50;;;;;13.34;72.03;100826.53;3032182;22;48286;-89
2022/11/09 06:06:43;;;;;;;;;3.00;1.00;;;;;13.37;72.00;100834.31;3033064;22;44617;-88
2022/11/09 06:07:53;;;;;;;;;1.00;1.00;;;;;13.37;72.06;100829.03;3031137;22;46999;-88
2022/11/09 06:09:03;;;;;;;;;4.00;1.75;;;;;13.40;72.46;100828.91;3048278;22;44565;-90
2022/11/09 06:10:14;;;;;;;;;2.50;1.00;;;;;13.38;71.69;100826.31;3042939;22;48010;-88
2022/11/09 06:11:24;;;;;;;;;2.50;1.25;;;;;13.43;71.92;100828.78;3042737;22;46345;-89
2022/11/09 06:12:34;;;;;;;;;1.25;1.25;;;;;13.44;72.06;100827.84;3047260;22;45210;-89
2022/11/09 06:13:45;;;;;;;;;2.75;1.00;;;;;13.44;72.03;100827.84;3043250;22;45175;-89
2022/11/09 06:16:15;;;;;;;;;2.50;1.00;;;;;13.45;71.85;100834.00;3020566;22;44874;-86
2022/11/09 06:17:26;;;;;;;;;4.25;2.75;;;;;13.48;71.86;100828.59;3055844;22;46564;-85
2022/11/09 06:18:36;;;;;;;;;3.00;2.00;;;;;13.47;71.92;100830.38;3042398;22;45161;-86
2022/11/09 06:19:47;;;;;;;;;3.00;1.00;;;;;13.49;71.91;100825.88;3046449;22;46839;-86
2022/11/09 06:21:00;;;;;;;;;3.50;3.00;;;;;13.50;72.23;100822.31;3041230;22;45557;-87
2022/11/09 06:22:11;;;;;;;;;1.00;1.00;;;;;13.52;72.05;100831.94;3045617;22;47505;-86
2022/11/09 06:23:25;;;;;;;;;2.25;2.00;;;;;13.53;72.34;100828.38;3058049;22;45368;-87
2022/11/09 06:24:35;;;;;;;;;2.75;2.00;;;;;13.53;72.13;100833.66;3058108;22;45327;-86
2022/11/09 06:25:47;;;;;;;;;4.75;3.00;;;;;13.53;72.29;100833.66;3056887;22;45258;-87
2022/11/09 06:26:57;;;;;;;;;1.00;1.00;;;;;13.53;72.10;100839.78;3041521;22;48310;-86
2022/11/09 06:28:08;;;;;;;;;4.75;2.00;;;;;13.50;72.03;100835.53;3045320;22;44650;-86
2022/11/09 06:29:18;;;;;;;;;5.25;1.75;;;;;13.52;71.83;100832.81;3041053;22;46819;-86
2022/11/09 06:30:29;;;;;;;;;2.75;2.75;;;;;13.54;71.99;100835.38;3029792;22;45345;-85
2022/11/09 06:31:39;;;;;;;;;2.50;2.00;;;;;13.54;72.20;100845.94;3046090;22;45218;-89
2022/11/09 06:32:49;;;;;;;;;3.25;2.25;;;;;13.57;72.01;100853.75;3041256;22;45216;-89
2022/11/09 06:34:00;;;;;;;;;2.25;1.00;;;;;13.56;72.02;100846.72;3046373;22;46275;-89
2022/11/09 06:35:10;;;;;;;;;2.75;1.75;;;;;13.56;72.24;100852.88;3056906;22;44676;-87
2022/11/09 06:36:21;;;;;;;;;3.00;1.00;;;;;13.59;72.24;100849.25;3056888;22;45899;-87
2022/11/09 06:37:31;;;;;;;;;1.50;1.50;;;;;13.59;72.05;100863.31;3058003;22;44680;-88
2022/11/09 06:38:41;;;;;;;;;2.75;2.00;;;;;13.58;71.86;100850.19;3058026;22;45278;-90
2022/11/09 06:39:52;;;;;;;;;2.25;2.00;;;;;13.59;72.26;100854.53;3042313;22;45229;-88
2022/11/09 06:41:02;;;;;;;;;3.00;1.50;;;;;13.59;72.19;100855.41;3031218;22;47142;-88
2022/11/09 06:42:12;;;;;;;;;2.25;2.00;;;;;13.58;72.16;100853.69;3031312;22;44579;-88
2022/11/09 06:43:23;;;;;;;;;3.00;2.00;;;;;13.60;72.28;100861.53;3045709;22;46804;-87
2022/11/09 06:44:34;;;;;;;;;3.00;2.00;;;;;13.59;71.60;100868.59;3042317;22;45234;-88
2022/11/09 06:45:44;;;;;;;;;4.75;2.00;;;;;13.59;72.20;100862.47;3031281;22;46905;-89
2022/11/09 06:46:54;;;;;;;;;2.50;1.00;;;;;13.59;71.93;100868.59;3046290;22;44685;-89
2022/11/09 06:48:05;;;;;;;;;5.75;3.00;;;;;13.60;72.03;100874.75;3058584;22;45278;-88
2022/11/09 06:49:15;;;;;;;;;3.00;2.00;;;;;13.60;72.05;100874.75;3058522;22;45227;-89
2022/11/09 06:50:28;;;;;;;;;3.00;2.00;;;;;13.61;72.21;100871.16;3041709;22;48065;-89
2022/11/09 06:51:39;;;;;;;;;3.75;2.25;;;;;13.62;72.62;100880.81;3042249;22;45262;-88
2022/11/09 06:52:49;;;;;;;;;3.25;3.25;;;;;13.60;72.23;100874.75;3031270;22;46954;-88
2022/11/09 06:53:59;;;;;;;;;4.00;2.00;;;;;13.61;71.89;100871.16;3044900;22;44660;-89
2022/11/09 06:55:10;;;;;;;;;6.25;3.00;;;;;13.59;72.06;100867.75;3040807;22;47373;-88
2022/11/09 06:56:20;;;;;;;;;3.00;3.00;;;;;13.60;72.36;100874.75;3045547;22;45439;-89
2022/11/09 06:57:30;;;;;;;;;4.75;3.00;;;;;13.61;72.46;100882.59;3041279;22;47158;-88
2022/11/09 06:58:41;;;;;;;;;3.25;1.00;;;;;13.59;72.13;100879.16;3031151;22;45203;-89
2022/11/09 06:59:51;;;;;;;;;2.00;2.00;;;;;13.61;72.21;100876.44;3031182;22;48300;-90
2022/11/09 07:01:14;;;;;;;;;2.25;2.00;;;;;13.61;72.18;100881.72;3046471;22;45387;-88
2022/11/09 07:02:25;;;;;;;;;5.50;2.75;;;;;13.60;72.33;100885.31;3041184;22;46960;-89
2022/11/09 07:03:35;;;;;;;;;5.75;3.00;;;;;13.58;72.24;100869.53;3046409;22;45368;-88
2022/11/09 07:04:45;;;;;;;;;5.50;3.75;;;;;13.59;72.06;100889.72;3057021;22;47594;-89
2022/11/09 07:05:56;;;;;;;;;2.00;2.00;;;;;13.60;72.30;100886.19;3041544;22;45179;-88
2022/11/09 07:07:06;;;;;;;;;3.25;2.00;;;;;13.60;72.19;100888.81;3041637;22;48014;-89
2022/11/09 07:08:17;;;;;;;;;4.25;3.00;;;;;13.61;72.39;100889.66;3046702;22;45579;-89
2022/11/09 07:09:28;;;;;;;;;3.50;2.00;;;;;13.62;71.98;100894.03;3057843;22;46689;-88
2022/11/09 07:10:39;;;;;;;;;2.00;2.00;;;;;13.60;72.59;100895.88;3058374;22;45186;-88
2022/11/09 07:11:49;;;;;;;;;6.25;3.00;;;;;13.59;72.43;100894.16;3058010;22;45607;-89
2022/11/09 07:13:02;;;;;;;;;3.50;3.25;;;;;13.60;72.24;100895.88;3041728;22;45218;-89
2022/11/09 07:14:12;;;;;;;;;3.50;3.50;;;;;13.59;72.30;100904.72;3030681;22;47212;-89
2022/11/09 07:15:23;;;;;;;;;2.00;2.00;;;;;13.61;72.31;100906.38;3046691;22;45377;-88
2022/11/09 07:16:33;;;;;;;;;3.00;2.00;;;;;13.62;72.33;100909.88;3056758;22;46210;-89
2022/11/09 07:17:43;;;;;;;;;4.00;2.25;;;;;13.62;72.15;100915.16;3041511;22;44692;-89
2022/11/09 07:18:54;;;;;;;;;4.00;3.50;;;;;13.63;71.70;100919.50;3046512;22;46471;-89
2022/11/09 07:20:09;;;;;;;;;3.50;3.00;;;;;13.61;72.34;100914.28;3058245;22;44774;-89
2022/11/09 07:21:19;;;;;;;;;2.75;2.00;;;;;13.61;72.28;100919.56;3058001;22;46267;-90
2022/11/09 07:22:30;;;;;;;;;2.50;2.50;;;;;13.62;72.53;100915.16;3040649;22;45351;-89
2022/11/09 07:23:40;;;;;;;;;3.50;3.25;;;;;13.63;72.44;100921.31;3046186;22;45627;-89
2022/11/09 07:24:51;;;;;;;;;4.75;3.00;;;;;13.63;72.54;100924.78;3056460;22;44690;-88
2022/11/09 07:26:01;;;;;;;;;3.50;1.75;;;;;13.62;72.37;100925.72;3041741;22;46682;-90
2022/11/09 07:27:11;;;;;;;;;3.25;3.25;;;;;13.63;72.45;100927.41;3030804;22;45321;-89
2022/11/09 07:28:22;;;;;;;;;4.00;3.00;;;;;13.62;72.40;100931.00;3046899;22;46517;-90
2022/11/09 07:29:32;;;;;;;;;3.00;2.75;;;;;13.63;72.44;100935.34;3058491;22;45369;-90
2022/11/09 07:30:42;;;;;;;;;6.50;3.00;;;;;13.63;72.78;100930.06;3041720;22;46175;-89
2022/11/09 07:31:53;;;;;;;;;3.00;3.00;;;;;13.64;72.38;100931.78;3046807;22;45273;-89
2022/11/09 07:33:14;;;;;;;;;5.00;3.00;;;;;13.65;72.25;100935.28;3041206;22;47331;-88
2022/11/09 07:34:24;;;;;;;;;2.00;2.00;;;;;13.65;72.30;100933.53;3049055;22;45402;-88
2022/11/09 07:35:35;;;;;;;;;5.50;3.75;;;;;13.66;72.77;100940.50;3060014;22;46206;-88
2022/11/09 07:36:45;;;;;;;;;2.75;2.75;;;;;13.67;72.37;100941.38;3058051;22;45124;-88
2022/11/09 07:38:00;;;;;;;;;3.00;3.00;;;;;13.68;72.19;100943.09;3056995;22;47157;-88
2022/11/09 07:39:10;;;;;;;;;3.00;2.00;;;;;13.69;72.54;100942.16;3042228;22;45341;-88
2022/11/09 07:40:21;;;;;;;;;7.25;2.50;;;;;13.67;72.50;100944.00;3031709;22;47186;-87
2022/11/09 07:41:31;;;;;;;;;4.25;4.00;;;;;13.68;72.44;100943.94;3041551;22;45281;-89
2022/11/09 07:42:42;;;;;;;;;4.00;3.00;;;;;13.67;72.22;100936.94;3046182;22;45388;-88
2022/11/09 07:43:52;;;;;;;;;5.75;3.50;;;;;13.67;72.64;100936.94;3059441;22;45336;-89
2022/11/09 07:45:03;;;;;;;;;6.25;5.75;;;;;13.67;72.34;100944.00;3057464;22;47013;-89
2022/11/09 07:46:14;;;;;;;;;3.25;3.00;;;;;13.68;72.34;100943.09;3057929;22;45203;-88
2022/11/09 07:47:24;;;;;;;;;3.75;3.50;;;;;13.67;72.58;100936.94;3059166;22;46193;-88
2022/11/09 07:48:34;;;;;;;;;3.75;3.00;;;;;13.69;72.47;100944.78;3059185;22;44674;-89
2022/11/09 07:49:45;;;;;;;;;3.00;1.75;;;;;13.69;72.18;100948.31;3040447;22;47211;-88
2022/11/09 07:50:56;;;;;;;;;4.50;3.00;;;;;13.70;72.68;100947.34;3047247;22;45203;-88
2022/11/09 07:52:06;;;;;;;;;3.00;3.00;;;;;13.71;72.45;100946.44;3059178;22;45284;-88
2022/11/09 07:53:16;;;;;;;;;3.75;3.50;;;;;13.72;72.35;100950.81;3042904;22;45204;-88
2022/11/09 07:54:27;;;;;;;;;4.00;3.00;;;;;13.72;72.51;100948.19;3031393;22;48113;-88
2022/11/09 07:55:37;;;;;;;;;2.25;2.00;;;;;13.74;72.63;100948.09;3046595;22;45290;-88
2022/11/09 07:56:47;;;;;;;;;4.50;3.25;;;;;13.73;72.93;100955.16;3042173;22;48093;-88
2022/11/09 07:58:00;;;;;;;;;2.00;2.00;;;;;13.72;72.87;100948.19;3047066;22;45171;-88
2022/11/09 07:59:10;;;;;;;;;3.50;3.00;;;;;13.74;72.76;100945.47;3058932;22;45438;-88
2022/11/09 08:00:21;;;;;;;;;2.25;2.00;;;;;13.75;72.64;100951.59;3042852;22;45251;-87
2022/11/09 08:01:31;;;;;;;;;3.00;3.00;;;;;13.76;72.71;100946.25;3030817;22;48216;-88
2022/11/09 08:02:42;;;;;;;;;6.25;5.75;;;;;13.79;72.90;100953.19;3047139;22;45289;-88
2022/11/09 08:03:53;;;;;;;;;6.25;3.00;;;;;13.76;72.69;100946.25;3058353;22;45390;-87
2022/11/09 08:05:03;;;;;;;;;3.50;1.50;;;;;13.80;72.57;100955.75;3041923;22;45426;-88
2022/11/09 08:06:14;;;;;;;;;4.00;3.00;;;;;13.81;72.66;100946.03;3047011;22;45389;-88
2022/11/09 08:07:24;;;;;;;;;3.75;2.00;;;;;13.83;72.60;100958.25;3042176;22;45286;-87
2022/11/09 08:08:35;;;;;;;;;4.00;2.50;;;;;13.84;72.86;100953.84;3047024;22;45398;-86
2022/11/09 08:09:45;;;;;;;;;4.25;3.00;;;;;13.86;72.62;100961.69;3059383;22;45182;-88
2022/11/09 08:10:57;;;;;;;;;3.00;3.00;;;;;13.89;72.56;100969.50;3041616;22;48121;-89
2022/11/09 08:12:07;;;;;;;;;4.75;3.00;;;;;13.89;72.70;100964.22;3030843;22;44572;-88
2022/11/09 08:13:18;;;;;;;;;6.75;5.00;;;;;13.90;72.50;100964.13;3047396;22;45286;-88
2022/11/09 08:14:29;;;;;;;;;7.75;5.00;;;;;13.90;72.73;100961.50;3058708;22;45173;-88
2022/11/09 08:15:40;;;;;;;;;4.25;4.25;;;;;13.94;72.46;100973.66;3057146;22;47998;-87
2022/11/09 08:16:51;;;;;;;;;6.00;4.75;;;;;13.94;72.69;100970.16;3057664;22;45408;-87
2022/11/09 08:18:05;;;;;;;;;4.75;3.00;;;;;13.95;72.72;100974.53;3042524;22;46968;-88
2022/11/09 08:19:15;;;;;;;;;3.75;3.00;;;;;13.97;72.82;100971.81;3047883;22;45270;-88
2022/11/09 08:20:25;;;;;;;;;4.00;2.25;;;;;13.98;72.64;100976.16;3058460;22;46119;-88
2022/11/09 08:21:36;;;;;;;;;3.00;1.50;;;;;14.01;72.85;100978.66;3041447;22;44576;-88
2022/11/09 08:22:47;;;;;;;;;5.50;3.75;;;;;14.02;72.72;100975.13;3046879;22;46480;-89
2022/11/09 08:23:57;;;;;;;;;6.00;4.00;;;;;14.05;72.69;100977.63;3042570;22;45180;-88
2022/11/09 08:25:08;;;;;;;;;3.00;3.00;;;;;14.08;72.46;100974.81;3047043;22;45184;-88
2022/11/09 08:26:18;;;;;;;;;3.00;2.75;;;;;14.09;72.67;100970.41;3058980;22;44564;-88
2022/11/09 08:27:29;;;;;;;;;2.00;0.00;;;;;14.11;72.57;100964.13;3042173;22;47043;-88
2022/11/09 08:28:39;;;;;;;;;5.00;2.00;;;;;14.11;72.48;100969.41;3047779;22;44495;-88
2022/11/09 08:29:50;;;;;;;;;4.50;4.25;;;;;14.12;72.39;100971.16;3058775;22;45186;-88
2022/11/09 08:31:02;;;;;;;;;4.25;3.50;;;;;14.15;72.59;100976.28;3057322;22;45121;-89
2022/11/09 08:32:13;;;;;;;;;2.75;2.75;;;;;14.17;72.62;100984.16;3058150;22;46471;-88
2022/11/09 08:33:24;;;;;;;;;5.00;4.00;;;;;14.17;72.33;100973.56;3058183;22;45293;-88
2022/11/09 08:34:35;;;;;;;;;4.00;4.00;;;;;14.17;72.43;100974.41;3040713;22;47032;-87
2022/11/09 08:35:45;;;;;;;;;5.00;4.00;;;;;14.17;72.48;100969.13;3047673;22;45218;-88
2022/11/09 08:36:59;;;;;;;;;4.00;2.75;;;;;14.20;72.34;100964.66;3058935;22;46403;-88
2022/11/09 08:38:09;;;;;;;;;3.00;2.00;;;;;14.21;72.50;100974.28;3042286;22;45124;-88
2022/11/09 08:39:21;;;;;;;;;5.50;4.00;;;;;14.22;72.27;100970.72;3041348;22;47821;-88
2022/11/09 08:40:33;;;;;;;;;4.00;2.25;;;;;14.25;72.40;100981.16;3031588;22;45356;-88
2022/11/09 08:41:43;;;;;;;;;2.75;2.00;;;;;14.24;72.62;100974.16;3030759;22;48345;-88
2022/11/09 08:42:54;;;;;;;;;4.00;2.25;;;;;14.28;72.34;100981.00;3046898;22;44634;-88
2022/11/09 08:44:04;;;;;;;;;3.00;2.50;;;;;14.28;72.12;100981.00;3057880;22;45278;-88
2022/11/09 08:45:15;;;;;;;;;3.50;2.75;;;;;14.31;72.21;100974.72;3058543;22;45260;-88
2022/11/09 08:46:26;;;;;;;;;2.50;2.50;;;;;14.31;72.22;100975.59;3041212;22;47065;-88
2022/11/09 08:47:37;;;;;;;;;3.50;2.00;;;;;14.31;72.35;100983.53;3031520;22;45244;-87
2022/11/09 08:48:48;;;;;;;;;3.25;3.25;;;;;14.32;71.94;100987.03;3030090;22;48118;-87
2022/11/09 08:49:58;;;;;;;;;3.50;2.75;;;;;14.34;72.21;100987.81;3047094;22;45176;-88
2022/11/09 08:51:08;;;;;;;;;2.50;2.00;;;;;14.32;72.15;100987.88;3058346;22;46450;-88
2022/11/09 08:52:18;;;;;;;;;5.00;4.00;;;;;14.33;72.35;100981.66;3043027;22;44563;-87
2022/11/09 08:53:29;;;;;;;;;5.50;3.25;;;;;14.32;71.91;100987.88;3031994;22;47379;-87
2022/11/09 08:54:39;;;;;;;;;3.25;3.00;;;;;14.34;72.24;100985.19;3048423;22;44558;-87
2022/11/09 08:55:50;;;;;;;;;3.00;3.00;;;;;14.34;72.19;100980.75;3058845;22;45140;-86
2022/11/09 08:57:01;;;;;;;;;3.00;3.00;;;;;14.38;72.07;100995.53;3059138;22;44668;-87
2022/11/09 08:58:11;;;;;;;;;5.00;3.00;;;;;14.38;71.95;100992.91;3059258;22;45342;-88
2022/11/09 08:59:22;;;;;;;;;4.00;3.00;;;;;14.40;72.07;100998.09;3059901;22;45199;-88
2022/11/09 09:00:32;;;;;;;;;5.00;3.00;;;;;14.45;72.02;101003.19;3042772;22;47973;-88
2022/11/09 09:01:43;;;;;;;;;3.00;3.00;;;;;14.45;72.18;100998.75;3047855;22;45389;-88
2022/11/09 09:02:53;;;;;;;;;3.75;3.00;;;;;14.48;71.99;101003.06;3059388;22;45401;-88
2022/11/09 09:04:03;;;;;;;;;3.50;2.25;;;;;14.50;71.74;101003.84;3059055;22;45376;-88
2022/11/09 09:05:14;;;;;;;;;5.00;3.25;;;;;14.52;72.02;101004.63;3057864;22;46077;-88
2022/11/09 09:06:25;;;;;;;;;4.25;2.25;;;;;14.57;71.65;101015.84;3042804;22;44642;-88
2022/11/09 09:07:35;;;;;;;;;3.00;3.00;;;;;14.59;71.76;101014.00;3047520;22;45270;-88
2022/11/09 09:08:45;;;;;;;;;4.25;2.00;;;;;14.63;71.74;101017.38;3059573;22;45135;-88
2022/11/09 09:09:56;;;;;;;;;3.50;3.00;;;;;14.68;71.78;101022.44;3059594;22;45184;-88
2022/11/09 09:11:06;;;;;;;;;2.50;2.00;;;;;14.69;71.34;101024.19;3043184;22;45222;-88
2022/11/09 09:12:17;;;;;;;;;3.00;1.50;;;;;14.71;71.63;101019.66;3048059;22;45302;-88
2022/11/09 09:13:28;;;;;;;;;3.00;1.50;;;;;14.74;71.46;101015.06;3058565;22;44584;-88
2022/11/09 09:14:38;;;;;;;;;2.00;1.25;;;;;14.78;71.42;101014.94;3058223;22;45279;-88
2022/11/09 09:15:49;;;;;;;;;4.50;2.50;;;;;14.83;71.35;101019.09;3042740;22;45231;-88
2022/11/09 09:17:00;;;;;;;;;2.75;2.25;;;;;14.87;71.42;101024.25;3045772;22;46313;-88
2022/11/09 09:18:10;;;;;;;;;1.00;1.00;;;;;14.91;71.24;101023.22;3043278;22;45227;-87
2022/11/09 09:19:21;;;;;;;;;2.00;2.00;;;;;14.93;71.19;101024.84;3043054;22;45364;-87
2022/11/09 09:20:32;;;;;;;;;4.25;2.00;;;;;14.97;70.99;101020.25;3043197;22;45322;-88
2022/11/09 09:21:42;;;;;;;;;2.25;2.00;;;;;15.01;71.20;101027.16;3043396;22;45311;-87
2022/11/09 09:22:56;;;;;;;;;2.00;2.00;;;;;15.05;71.17;101022.53;3043179;22;45244;-87
2022/11/09 09:24:06;;;;;;;;;5.00;3.00;;;;;15.09;70.98;101024.09;3043058;22;45521;-88
2022/11/09 09:25:17;;;;;;;;;2.00;2.00;;;;;15.08;70.58;101017.13;3044146;22;45209;-87
2022/11/09 09:26:27;;;;;;;;;2.00;1.50;;;;;15.13;70.73;101024.84;3043093;22;46952;-87
2022/11/09 09:27:37;;;;;;;;;2.75;1.75;;;;;15.15;70.48;101028.25;3043957;22;45166;-88
2022/11/09 09:28:49;;;;;;;;;3.75;2.00;;;;;15.17;70.27;101023.75;3044070;22;45320;-86
2022/11/09 09:30:00;;;;;;;;;2.50;2.50;;;;;15.19;70.40;101029.81;3044421;22;44624;-85
2022/11/09 09:31:10;;;;;;;;;1.00;1.00;;;;;15.21;70.55;101030.59;3044053;22;46276;-86
2022/11/09 11:57:00;;;;;;;;;3.00;1.00;;;;;16.62;62.68;101131.50;3043682;22;46284;-84
2022/11/09 11:58:20;;;;;;;;;1.75;1.50;;;;;16.60;62.94;101141.34;3057775;22;44652;-84
2022/11/09 12:00:04;;;;;;;;;2.50;1.50;;;;;16.56;62.67;101132.72;3041564;22;47879;-86
2022/11/09 12:01:30;;;;;;;;;0.75;0.75;;;;;16.56;62.33;101131.84;3055198;22;45294;-85
2022/11/09 12:03:08;;;;;;;;;3.50;1.00;;;;;16.56;63.06;101131.84;3059194;22;45415;-85
2022/11/09 12:04:27;;;;;;;;;1.50;1.25;;;;;16.56;62.89;101132.72;3059404;22;45262;-85
2022/11/09 12:06:06;;;;;;;;;1.00;1.00;;;;;16.56;63.08;101135.34;3042231;22;47076;-86
2022/11/09 12:07:49;;;;;;;;;1.50;1.00;;;;;16.57;63.13;101130.91;3044474;22;45163;-85
2022/11/09 12:09:07;;;;;;;;;0.25;0.25;;;;;16.56;62.50;101126.53;3041480;22;47669;-86
2022/11/09 12:10:17;;;;;;;;;1.00;1.00;;;;;16.57;62.47;101129.09;3048906;22;44705;-85
2022/11/09 12:11:59;;;;;;;;;1.00;1.00;;;;;16.58;62.85;101127.31;3041698;22;47941;-86
2022/11/09 12:13:27;;;;;;;;;1.00;0.75;;;;;16.59;62.44;101124.59;3054422;22;45380;-86
2022/11/09 12:14:54;;;;;;;;;3.00;1.50;;;;;16.61;62.90;101128.03;3042471;22;48210;-87
2022/11/09 12:16:33;;;;;;;;;2.00;1.00;;;;;16.62;63.04;101129.72;3051283;22;44593;-87
2022/11/09 12:17:50;;;;;;;;;1.00;1.00;;;;;16.63;62.54;101118.19;3058499;22;45292;-86
2022/11/09 12:19:08;;;;;;;;;1.00;1.00;;;;;16.65;62.91;101120.75;3059191;22;44711;-86
2022/11/09 12:20:39;;;;;;;;;1.25;1.25;;;;;16.64;62.56;101125.19;3058749;22;45416;-87
2022/11/09 12:22:16;;;;;;;;;1.00;1.00;;;;;16.65;62.44;101126.91;3058492;22;45285;-86
2022/11/09 12:23:56;;;;;;;;;3.00;1.75;;;;;16.68;62.50;101120.59;3058393;22;45555;-85
2022/11/09 12:25:21;;;;;;;;;1.00;1.00;;;;;16.69;63.05;101132.91;3055844;22;45306;-86
2022/11/09 12:26:31;;;;;;;;;2.00;1.75;;;;;16.72;62.54;101126.56;3041894;22;48283;-86
2022/11/09 12:27:51;;;;;;;;;2.00;2.00;;;;;16.74;62.61;101138.00;3031562;22;45225;-87
2022/11/09 12:29:10;;;;;;;;;1.00;1.00;;;;;16.73;62.67;101138.91;3034048;22;47563;-86
2022/11/09 12:30:24;;;;;;;;;1.75;1.00;;;;;16.73;62.22;101123.00;3049840;22;44662;-87
2022/11/09 12:31:57;;;;;;;;;2.00;0.00;;;;;16.74;62.47;101124.72;3059439;22;46455;-87
2022/11/09 12:33:15;;;;;;;;;2.00;1.00;;;;;16.78;62.66;101134.22;3059833;22;44684;-87
2022/11/09 12:34:39;;;;;;;;;4.75;1.00;;;;;16.84;62.60;101133.88;3042603;22;47226;-86
2022/11/09 12:35:59;;;;;;;;;2.00;1.75;;;;;16.89;62.61;101132.81;3035273;22;45625;-87
2022/11/09 12:37:17;;;;;;;;;1.50;1.00;;;;;16.94;62.21;101130.75;3049267;22;47852;-86
2022/11/09 12:38:36;;;;;;;;;2.75;1.50;;;;;17.00;62.72;101130.41;3042820;22;45272;-87
2022/11/09 12:39:52;;;;;;;;;1.50;1.00;;;;;17.04;62.19;101131.13;3033430;22;46115;-86
2022/11/09 12:41:09;;;;;;;;;4.50;1.25;;;;;17.08;62.29;101133.53;3048998;22;45259;-87
2022/11/09 12:42:27;;;;;;;;;1.00;1.00;;;;;17.12;62.03;101139.50;3059758;22;45298;-87
2022/11/09 12:44:08;;;;;;;;;0.75;0.50;;;;;17.17;61.83;101132.19;3059445;22;45155;-87
2022/11/09 12:45:31;;;;;;;;;2.50;1.00;;;;;17.22;61.53;101139.91;3042899;22;48248;-87
2022/11/09 12:46:48;;;;;;;;;0.25;0.25;;;;;17.23;61.58;101133.66;3035196;22;45258;-87
2022/11/09 12:48:05;;;;;;;;;2.00;1.00;;;;;17.26;60.79;101138.78;3049654;22;45349;-88
2022/11/09 12:49:33;;;;;;;;;2.00;0.75;;;;;17.29;61.11;101127.13;3043383;22;44667;-87
2022/11/09 12:50:43;;;;;;;;;2.00;0.75;;;;;17.30;60.88;101136.81;3042636;22;48308;-87
2022/11/09 12:51:54;;;;;;;;;0.75;0.00;;;;;17.28;60.54;101136.91;3031704;22;45259;-88
2022/11/09 12:53:05;;;;;;;;;1.25;1.00;;;;;17.30;59.74;101140.34;3047418;22;45247;-86
2022/11/09 12:54:16;;;;;;;;;0.00;0.00;;;;;17.31;60.35;101133.19;3059797;22;45153;-87
2022/11/09 12:55:57;;;;;;;;;1.00;0.00;;;;;17.32;60.89;101130.47;3043285;22;47141;-87
2022/11/09 12:57:20;;;;;;;;;1.00;1.00;;;;;17.35;60.95;101136.56;3038669;22;44522;-87
2022/11/09 12:58:33;;;;;;;;;2.00;1.25;;;;;17.38;59.84;101125.78;3050164;22;46912;-86
2022/11/09 12:59:48;;;;;;;;;2.75;1.75;;;;;17.38;60.52;101139.06;3059238;22;45203;-88
2022/11/09 13:01:05;;;;;;;;;1.75;1.00;;;;;17.40;60.81;101139.81;3059078;22;46307;-86
2022/11/09 13:02:41;;;;;;;;;2.00;1.00;;;;;17.40;60.26;101140.69;3043519;22;45162;-86
2022/11/09 13:03:55;;;;;;;;;0.50;0.50;;;;;17.40;60.72;101143.34;3052090;22;45366;-87
2022/11/09 13:05:37;;;;;;;;;1.00;0.00;;;;;17.41;60.43;101138.88;3059137;22;44537;-87
2022/11/09 13:07:03;;;;;;;;;1.00;1.00;;;;;17.42;59.04;101143.25;3058711;22;45723;-86
2022/11/09 13:08:29;;;;;;;;;0.25;0.25;;;;;17.38;59.59;101142.56;3043561;22;45140;-86
2022/11/09 13:09:40;;;;;;;;;5.00;1.00;;;;;17.35;58.86;101144.53;3051761;22;46085;-86
2022/11/09 13:11:08;;;;;;;;;0.50;0.00;;;;;17.28;58.86;101144.88;3042550;22;45199;-86
2022/11/09 13:12:41;;;;;;;;;1.00;1.00;;;;;17.25;59.78;101155.66;3036204;22;47270;-87
2022/11/09 13:14:20;;;;;;;;;1.00;1.00;;;;;17.22;57.51;101155.84;3053321;22;45201;-87
2022/11/09 13:15:36;;;;;;;;;3.00;0.00;;;;;17.19;59.40;101150.69;3043216;22;47074;-86
2022/11/09 13:16:48;;;;;;;;;0.00;0.00;;;;;17.18;59.02;101159.59;3042680;22;45184;-87
2022/11/09 13:18:01;;;;;;;;;0.00;0.00;;;;;17.17;58.99;101155.22;3032611;22;48185;-86
2022/11/09 13:19:33;;;;;;;;;0.00;0.00;;;;;17.15;58.96;101151.75;3048896;22;44585;-86
2022/11/09 13:20:45;;;;;;;;;1.00;0.00;;;;;17.14;59.40;101150.03;3040187;22;47294;-86
2022/11/09 13:21:56;;;;;;;;;1.00;0.50;;;;;17.12;57.73;101154.56;3047883;22;45124;-86
2022/11/09 13:23:26;;;;;;;;;1.50;0.25;;;;;17.12;59.11;101159.88;3059722;22;45253;-86
2022/11/09 13:24:58;;;;;;;;;2.00;1.00;;;;;17.10;59.06;101155.53;3058204;22;45613;-87
2022/11/09 13:26:30;;;;;;;;;1.75;0.50;;;;;17.14;59.34;101158.00;3059142;22;46279;-87
2022/11/09 13:27:43;;;;;;;;;1.00;0.00;;;;;17.12;59.06;101159.88;3043355;22;44628;-87
2022/11/09 13:29:09;;;;;;;;;1.25;0.75;;;;;17.15;59.49;101165.03;3043124;22;47193;-89
2022/11/09 13:30:22;;;;;;;;;2.00;0.75;;;;;17.15;58.82;101154.41;3033957;22;45156;-88
2022/11/09 13:31:59;;;;;;;;;0.75;0.50;;;;;17.14;59.39;101160.66;3048198;22;45249;-88
2022/11/09 13:33:19;;;;;;;;;1.00;0.25;;;;;17.14;59.54;101166.84;3043355;22;45124;-88
2022/11/09 13:34:38;;;;;;;;;1.00;0.00;;;;;17.14;58.99;101165.97;3043125;22;48031;-88
2022/11/09 13:35:48;;;;;;;;;0.25;0.00;;;;;17.11;57.30;101175.00;3033944;22;44684;-87
2022/11/09 13:37:36;;;;;;;;;1.75;0.75;;;;;17.10;58.52;101168.81;3032002;22;47623;-87
2022/11/09 13:39:42;;;;;;;;;0.00;0.00;;;;;17.08;58.84;101164.53;3055592;22;45230;-88
2022/11/09 13:40:55;;;;;;;;;2.00;1.00;;;;;17.03;58.43;101177.19;2997062;22;46388;-88
2022/11/09 13:42:38;;;;;;;;;2.00;0.00;;;;;17.00;58.52;101172.91;2998468;22;44707;-87
2022/11/09 13:44:07;;;;;;;;;2.50;1.00;;;;;16.99;59.16;101171.16;3042761;22;47354;-88
2022/11/09 13:45:25;;;;;;;;;1.00;1.00;;;;;16.98;58.76;101182.75;3036365;22;45379;-87
2022/11/09 13:46:38;;;;;;;;;0.75;0.00;;;;;16.95;58.12;101172.28;3043165;22;47210;-88
2022/11/09 13:47:50;;;;;;;;;2.00;0.00;;;;;16.92;58.90;101177.75;3032909;22;45277;-87
2022/11/09 13:49:01;;;;;;;;;1.00;1.00;;;;;16.90;58.48;101177.84;3047727;22;48243;-88
2022/11/09 13:50:21;;;;;;;;;2.00;0.00;;;;;16.89;58.47;101177.94;3059187;22;45438;-89
2022/11/09 13:51:34;;;;;;;;;1.00;1.00;;;;;16.84;56.89;101179.00;3043054;22;47615;-87
2022/11/09 13:52:53;;;;;;;;;2.00;1.00;;;;;16.84;58.73;101172.88;3048989;22;45209;-88
2022/11/09 13:54:42;;;;;;;;;2.00;2.00;;;;;16.84;58.64;101179.00;3043065;22;48525;-88
2022/11/09 13:55:53;;;;;;;;;1.50;0.00;;;;;16.80;59.26;101177.47;2997049;22;45271;-88
2022/11/09 13:57:05;;;;;;;;;1.00;1.00;;;;;16.80;58.97;101182.78;2986711;22;47608;-88
2022/11/09 13:58:36;;;;;;;;;1.00;1.00;;;;;16.79;59.16;101181.03;3029372;22;45454;-87
2022/11/09 13:59:48;;;;;;;;;2.00;1.00;;;;;16.76;58.70;101182.09;3042571;22;47815;-88
2022/11/09 14:00:59;;;;;;;;;3.00;1.00;;;;;16.75;59.52;101190.13;3043441;22;45281;-88
2022/11/09 14:02:22;;;;;;;;;2.00;0.50;;;;;16.71;58.64;101189.44;3047772;22;45373;-88
2022/11/09 14:03:33;;;;;;;;;1.00;1.00;;;;;16.71;59.18;101185.91;3043323;22;45186;-88
2022/11/09 14:04:43;;;;;;;;;1.75;1.75;;;;;16.69;57.95;101187.78;3031960;22;47048;-87
2022/11/09 14:06:00;;;;;;;;;1.25;1.00;;;;;16.64;58.61;101185.38;3032548;22;45216;-88
2022/11/09 14:07:13;;;;;;;;;1.50;1.50;;;;;16.63;59.00;101187.19;3033176;22;48303;-87
2022/11/09 14:08:33;;;;;;;;;1.75;1.00;;;;;16.62;59.16;101189.88;3032859;22;45268;-87
2022/11/09 14:09:46;;;;;;;;;1.00;1.00;;;;;16.60;59.65;101187.31;3034284;22;47408;-87
2022/11/09 14:11:08;;;;;;;;;0.25;0.25;;;;;16.62;59.41;101197.84;3032510;22;45117;-88